createdAt,value
2019-03-24T00:03:29.787Z,82.03
2019-03-24T00:08:32.375Z,82.31
2019-03-24T00:13:34.586Z,82.23
2019-03-24T00:18:37.093Z,82.18
2019-03-24T00:23:40.625Z,82.51
2019-03-24T00:28:42.900Z,82.60
2019-03-24T00:33:46.533Z,82.89
2019-03-24T00:38:48.921Z,82.65
2019-03-24T00:43:52.620Z,82.77
2019-03-24T00:48:55.040Z,82.80
2019-03-24T00:53:57.639Z,82.83
2019-03-24T00:58:59.973Z,83.09
2019-03-24T01:04:02.632Z,82.78
2019-03-24T01:09:06.610Z,82.92
2019-03-24T01:14:09.118Z,83.03
2019-03-24T01:19:11.415Z,83.17
2019-03-24T01:24:13.785Z,83.03
2019-03-24T01:29:16.721Z,83.06
2019-03-24T01:34:19.492Z,83.18
2019-03-24T01:39:22.179Z,82.93
2019-03-24T01:44:25.534Z,83.00
2019-03-24T01:49:28.010Z,83.05
2019-03-24T01:54:30.301Z,83.49
2019-03-24T01:59:32.859Z,82.83
2019-03-24T02:04:35.171Z,82.39
2019-03-24T02:09:38.092Z,81.96
2019-03-24T02:14:42.077Z,82.45
2019-03-24T02:19:45.678Z,83.13
2019-03-24T02:24:48.583Z,83.17
2019-03-24T02:29:51.764Z,83.45
2019-03-24T02:34:55.453Z,83.91
2019-03-24T02:39:57.943Z,83.16
2019-03-24T02:45:00.461Z,84.26
2019-03-24T02:50:03.810Z,84.46
2019-03-24T02:55:06.999Z,84.41
2019-03-24T03:00:09.577Z,84.42
2019-03-24T03:05:11.973Z,84.99
2019-03-24T03:10:14.980Z,85.07
2019-03-24T03:15:18.718Z,84.85
2019-03-24T03:20:21.180Z,84.40
2019-03-24T03:25:24.294Z,84.81
2019-03-24T03:30:27.335Z,83.97
2019-03-24T03:35:30.663Z,83.81
2019-03-24T03:40:33.081Z,84.72
2019-03-24T03:45:35.383Z,84.38
2019-03-24T03:50:37.944Z,84.76
2019-03-24T03:55:40.505Z,84.82
2019-03-24T04:00:43.509Z,85.18
2019-03-24T04:05:45.936Z,85.29
2019-03-24T04:10:48.666Z,85.08
2019-03-24T04:15:56.789Z,85.42
2019-03-24T04:20:59.691Z,85.89
2019-03-24T04:26:02.095Z,84.74
2019-03-24T04:31:04.469Z,84.83
2019-03-24T04:36:06.814Z,84.83
2019-03-24T04:41:10.163Z,85.39
2019-03-24T04:46:12.975Z,85.25
2019-03-24T04:51:15.538Z,85.04
2019-03-24T04:56:17.845Z,85.35
2019-03-24T05:01:20.357Z,85.08
2019-03-24T05:06:23.004Z,85.29
2019-03-24T05:11:25.428Z,85.46
2019-03-24T05:16:29.051Z,85.20
2019-03-24T05:21:31.566Z,85.90
2019-03-24T05:26:34.937Z,86.60
2019-03-24T05:31:37.538Z,86.32
2019-03-24T05:36:41.055Z,86.23
2019-03-24T05:41:43.542Z,86.11
2019-03-24T05:46:45.830Z,86.53
2019-03-24T05:51:48.385Z,86.45
2019-03-24T05:56:50.755Z,86.74
2019-03-24T06:01:53.644Z,86.90
2019-03-24T06:06:56.552Z,86.92
2019-03-24T06:11:59.475Z,86.90
2019-03-24T06:17:01.952Z,86.81
2019-03-24T06:22:04.546Z,87.02
2019-03-24T06:27:07.232Z,86.79
2019-03-24T06:32:09.519Z,86.29
2019-03-24T06:37:12.327Z,86.62
2019-03-24T06:42:27.700Z,87.21
2019-03-24T06:47:36.931Z,87.48
2019-03-24T06:52:39.223Z,87.73
2019-03-24T06:57:41.469Z,87.98
2019-03-24T07:02:43.868Z,88.37
2019-03-24T07:07:46.386Z,88.40
2019-03-24T07:12:51.420Z,88.26
2019-03-24T07:17:53.954Z,88.53
2019-03-24T07:22:56.158Z,88.58
2019-03-24T07:27:58.621Z,88.53
2019-03-24T07:33:01.013Z,88.94
2019-03-24T07:38:04.333Z,88.57
2019-03-24T07:43:08.876Z,88.73
2019-03-24T07:48:18.947Z,88.79
2019-03-24T07:53:16.319Z,88.44
2019-03-24T07:58:19.204Z,88.32
2019-03-24T08:03:22.964Z,88.19
2019-03-24T08:08:25.640Z,87.98
2019-03-24T08:13:27.943Z,87.56
2019-03-24T08:18:30.447Z,87.37
2019-03-24T08:23:32.975Z,86.46
2019-03-24T08:28:36.320Z,86.21
2019-03-24T08:33:38.585Z,85.34
2019-03-24T08:38:40.861Z,83.72
2019-03-24T08:43:43.251Z,81.33
2019-03-24T08:48:46.053Z,78.54
2019-03-24T08:53:48.359Z,78.31
2019-03-24T08:58:50.765Z,76.80
2019-03-24T09:03:53.539Z,75.17
2019-03-24T09:08:56.679Z,74.66
2019-03-24T09:13:59.017Z,72.62
2019-03-24T09:19:01.288Z,71.71
2019-03-24T09:24:04.058Z,67.49
2019-03-24T09:29:06.384Z,65.95
2019-03-24T09:34:11.200Z,65.50
2019-03-24T09:39:14.507Z,66.60
2019-03-24T09:44:18.327Z,63.94
2019-03-24T09:49:20.629Z,63.13
2019-03-24T09:54:23.212Z,65.52
2019-03-24T09:59:25.757Z,63.71
2019-03-24T10:04:27.964Z,64.26
2019-03-24T10:09:30.672Z,62.02
2019-03-24T10:14:33.694Z,60.47
2019-03-24T10:19:37.596Z,62.20
2019-03-24T10:24:40.180Z,62.57
2019-03-24T10:29:42.773Z,61.79
2019-03-24T10:34:45.055Z,59.31
2019-03-24T10:39:47.730Z,59.45
2019-03-24T10:44:50.186Z,58.49
2019-03-24T10:49:54.194Z,57.96
2019-03-24T10:54:56.543Z,57.25
2019-03-24T11:00:01.487Z,56.55
2019-03-24T11:05:04.714Z,58.73
2019-03-24T11:10:07.182Z,58.25
2019-03-24T11:15:11.431Z,58.48
2019-03-24T11:20:13.621Z,57.51
2019-03-24T11:25:16.336Z,60.48
2019-03-24T11:30:18.854Z,57.89
2019-03-24T11:35:21.244Z,57.72
2019-03-24T11:40:23.642Z,57.57
2019-03-24T11:45:26.240Z,60.02
2019-03-24T11:50:29.767Z,54.37
2019-03-24T11:55:32.205Z,56.31
2019-03-24T12:00:37.814Z,57.83
2019-03-24T12:05:40.047Z,56.97
2019-03-24T12:10:43.166Z,56.71
2019-03-24T12:15:45.509Z,55.93
2019-03-24T12:20:47.747Z,51.61
2019-03-24T12:25:50.350Z,50.87
2019-03-24T12:30:53.205Z,50.40
2019-03-24T12:35:55.602Z,56.04
2019-03-24T12:40:58.025Z,47.70
2019-03-24T12:46:03.992Z,48.98
2019-03-24T12:51:06.541Z,48.26
2019-03-24T12:56:08.722Z,45.26
2019-03-24T13:01:10.974Z,50.30
2019-03-24T13:06:14.386Z,48.94
2019-03-24T13:11:16.839Z,49.42
2019-03-24T13:16:23.157Z,49.30
2019-03-24T13:21:28.221Z,46.52
2019-03-24T13:26:30.511Z,48.49
2019-03-24T13:31:32.967Z,50.92
2019-03-24T13:36:35.960Z,50.63
2019-03-24T13:41:43.091Z,51.51
2019-03-24T13:46:47.639Z,43.70
2019-03-24T13:51:52.524Z,41.71
2019-03-24T13:56:54.914Z,47.13
2019-03-24T14:01:57.118Z,42.14
2019-03-24T14:06:59.319Z,42.23
2019-03-24T14:12:02.048Z,48.28
2019-03-24T14:17:05.969Z,44.51
2019-03-24T14:22:09.020Z,46.05
2019-03-24T14:27:11.633Z,38.58
2019-03-24T14:32:14.057Z,42.33
2019-03-24T14:37:16.174Z,49.40
2019-03-24T14:42:18.645Z,52.20
2019-03-24T14:47:20.830Z,43.23
2019-03-24T14:52:22.974Z,45.25
2019-03-24T14:57:25.279Z,45.09
2019-03-24T15:02:27.682Z,40.40
2019-03-24T15:07:29.933Z,48.98
2019-03-24T15:12:32.209Z,44.77
2019-03-24T15:17:34.546Z,45.36
2019-03-24T15:22:37.346Z,46.29
2019-03-24T15:27:40.770Z,44.30
2019-03-24T15:32:43.383Z,47.80
2019-03-24T15:37:45.529Z,43.04
2019-03-24T15:42:48.698Z,50.01
2019-03-24T15:47:51.330Z,54.72
2019-03-24T15:52:53.499Z,45.14
2019-03-24T15:57:55.703Z,41.75
2019-03-24T16:03:02.188Z,46.18
2019-03-24T16:08:04.432Z,44.88
2019-03-24T16:13:06.724Z,42.55
2019-03-24T16:18:15.682Z,44.80
2019-03-24T16:23:18.670Z,44.58
2019-03-24T16:28:20.813Z,42.84
2019-03-24T16:33:23.878Z,44.01
2019-03-24T16:38:28.100Z,42.56
2019-03-24T16:43:31.150Z,44.97
2019-03-24T16:48:36.939Z,47.32
2019-03-24T16:53:37.613Z,48.73
2019-03-24T16:58:39.879Z,47.79
2019-03-24T17:03:48.584Z,48.24
2019-03-24T17:08:51.976Z,47.80
2019-03-24T17:13:54.437Z,52.57
2019-03-24T17:18:56.592Z,48.91
2019-03-24T17:24:01.720Z,55.62
2019-03-24T17:29:04.077Z,53.06
2019-03-24T17:34:06.472Z,51.69
2019-03-24T17:39:09.028Z,53.90
2019-03-24T17:44:12.822Z,54.70
2019-03-24T17:49:15.308Z,53.73
2019-03-24T17:54:18.484Z,53.11
2019-03-24T17:59:21.628Z,55.74
2019-03-24T18:04:27.400Z,53.20
2019-03-24T18:09:32.296Z,53.72
2019-03-24T18:14:34.905Z,56.13
2019-03-24T18:19:38.695Z,53.82
2019-03-24T18:24:42.669Z,55.67
2019-03-24T18:29:45.990Z,56.01
2019-03-24T18:35:06.855Z,56.33
2019-03-24T18:40:12.038Z,57.74
2019-03-24T18:45:23.425Z,58.73
2019-03-24T18:50:25.626Z,60.70
2019-03-24T18:55:27.989Z,58.44
2019-03-24T19:00:56.139Z,58.82
2019-03-24T19:06:04.660Z,59.63
2019-03-24T19:11:13.441Z,59.43
2019-03-24T19:16:15.790Z,60.00
2019-03-24T19:21:24.414Z,60.32
2019-03-24T19:26:26.787Z,60.32
2019-03-24T19:31:35.400Z,61.33
2019-03-24T19:36:38.715Z,62.69
2019-03-24T19:41:41.503Z,62.44
2019-03-24T19:46:47.044Z,63.10
2019-03-24T19:51:50.664Z,63.75
2019-03-24T19:56:52.921Z,63.23
2019-03-24T20:01:58.449Z,63.03
2019-03-24T20:07:01.115Z,65.06
2019-03-24T20:12:03.757Z,64.00
2019-03-24T20:17:06.013Z,64.30
2019-03-24T20:22:09.703Z,66.02
2019-03-24T20:27:13.990Z,66.37
2019-03-24T20:32:18.462Z,66.77
2019-03-24T20:37:20.874Z,66.77
2019-03-24T20:42:26.556Z,66.75
2019-03-24T20:47:32.111Z,66.97
2019-03-24T20:52:34.620Z,67.37
2019-03-24T20:57:37.486Z,67.79
2019-03-24T21:02:39.866Z,68.19
2019-03-24T21:07:43.195Z,69.10
2019-03-24T21:12:50.004Z,69.27
2019-03-24T21:17:52.602Z,69.62
2019-03-24T21:22:55.780Z,69.37
2019-03-24T21:27:58.159Z,69.81
2019-03-24T21:33:00.475Z,70.09
2019-03-24T21:38:02.784Z,70.57
2019-03-24T21:43:06.649Z,70.50
2019-03-24T21:48:09.303Z,70.59
2019-03-24T21:53:11.686Z,70.55
2019-03-24T21:58:14.192Z,71.08
2019-03-24T22:03:18.293Z,71.24
2019-03-24T22:08:20.595Z,71.13
2019-03-24T22:13:23.043Z,71.25
2019-03-24T22:18:26.477Z,71.46
2019-03-24T22:23:28.776Z,72.05
2019-03-24T22:28:31.089Z,71.90
2019-03-24T22:33:33.310Z,72.02
2019-03-24T22:38:35.586Z,72.13
2019-03-24T22:43:38.075Z,72.14
2019-03-24T22:48:40.315Z,72.28
2019-03-24T22:53:43.023Z,72.29
2019-03-24T22:58:46.473Z,72.60
2019-03-24T23:03:49.109Z,72.84
2019-03-24T23:08:52.142Z,72.91
2019-03-24T23:13:54.484Z,73.11
2019-03-24T23:18:56.755Z,73.48
2019-03-24T23:23:58.966Z,73.62
2019-03-24T23:29:01.390Z,73.60
2019-03-24T23:34:03.810Z,73.87
2019-03-24T23:39:06.370Z,73.86
2019-03-24T23:44:09.418Z,74.05
2019-03-24T23:49:12.205Z,73.99
2019-03-24T23:54:26.193Z,74.22
2019-03-24T23:59:18.838Z,74.36
